createdAt,value
2023-03-25T00:00:20.871Z,18.74
2023-03-25T00:02:50.509Z,18.92
2023-03-25T00:05:20.183Z,18.81
2023-03-25T00:07:50.653Z,18.79
2023-03-25T00:10:18.567Z,18.53
2023-03-25T00:12:46.014Z,18.58
2023-03-25T00:15:14.073Z,18.84
2023-03-25T00:17:42.434Z,18.56
2023-03-25T00:20:11.511Z,18.51
2023-03-25T00:22:44.620Z,18.25
2023-03-25T00:25:17.545Z,18.60
2023-03-25T00:27:47.867Z,18.47
2023-03-25T00:30:16.615Z,18.34
2023-03-25T00:32:50.298Z,17.85
2023-03-25T00:35:19.982Z,17.90
2023-03-25T00:37:57.485Z,17.90
2023-03-25T00:40:30.884Z,18.23
2023-03-25T00:42:58.298Z,18.11
2023-03-25T00:45:26.109Z,17.80
2023-03-25T00:47:53.672Z,17.99
2023-03-25T00:50:21.832Z,18.13
2023-03-25T00:52:49.607Z,18.18
2023-03-25T00:55:17.408Z,18.11
2023-03-25T00:57:44.826Z,17.72
2023-03-25T01:00:15.996Z,17.28
2023-03-25T01:02:43.849Z,17.56
2023-03-25T01:05:11.891Z,17.43
2023-03-25T01:07:40.177Z,17.46
2023-03-25T01:10:09.129Z,17.53
2023-03-25T01:12:36.612Z,17.26
2023-03-25T01:15:04.607Z,17.35
2023-03-25T01:17:32.041Z,16.92
2023-03-25T01:19:59.533Z,16.53
2023-03-25T01:22:27.216Z,16.53
2023-03-25T01:24:55.456Z,16.95
2023-03-25T01:27:24.545Z,16.82
2023-03-25T01:29:54.570Z,16.62
2023-03-25T01:32:22.057Z,16.78
2023-03-25T01:34:49.694Z,16.17
2023-03-25T01:37:18.360Z,16.90
2023-03-25T01:39:45.872Z,16.36
2023-03-25T01:42:13.263Z,16.77
2023-03-25T01:44:41.082Z,16.55
2023-03-25T01:47:08.949Z,16.88
2023-03-25T01:49:40.824Z,16.90
2023-03-25T01:52:13.221Z,16.89
2023-03-25T01:54:41.093Z,16.54
2023-03-25T01:57:10.416Z,16.48
2023-03-25T01:59:38.563Z,17.11
2023-03-25T02:02:08.556Z,16.07
2023-03-25T02:04:58.785Z,16.26
2023-03-25T02:07:34.016Z,15.84
2023-03-25T02:10:09.495Z,16.08
2023-03-25T02:12:37.355Z,15.79
2023-03-25T02:15:07.929Z,15.25
2023-03-25T02:17:40.471Z,15.51
2023-03-25T02:20:30.307Z,15.33
2023-03-25T02:23:07.685Z,15.27
2023-03-25T02:25:54.953Z,15.44
2023-03-25T02:28:36.457Z,15.51
2023-03-25T02:31:29.725Z,15.32
2023-03-25T02:34:23.093Z,15.32
2023-03-25T02:37:18.932Z,15.03
2023-03-25T02:40:11.011Z,15.79
2023-03-25T02:42:49.115Z,15.45
2023-03-25T02:45:25.421Z,15.37
2023-03-25T02:47:56.188Z,15.44
2023-03-25T02:50:46.166Z,15.06
2023-03-25T02:53:21.184Z,15.23
2023-03-25T02:55:51.309Z,15.49
2023-03-25T02:58:21.643Z,14.81
2023-03-25T03:00:50.556Z,14.51
2023-03-25T03:03:18.253Z,14.36
2023-03-25T03:05:51.084Z,14.57
2023-03-25T03:08:46.459Z,14.63
2023-03-25T03:11:20.103Z,14.74
2023-03-25T03:13:59.222Z,14.18
2023-03-25T03:16:52.086Z,14.43
2023-03-25T03:19:38.354Z,14.65
2023-03-25T03:22:46.989Z,14.64
2023-03-25T03:25:32.431Z,14.25
2023-03-25T03:28:07.831Z,14.03
2023-03-25T03:30:46.595Z,14.44
2023-03-25T03:33:33.840Z,13.78
2023-03-25T03:36:05.504Z,14.18
2023-03-25T03:38:38.576Z,14.15
2023-03-25T03:41:10.199Z,13.95
2023-03-25T03:43:46.349Z,14.15
2023-03-25T03:46:21.077Z,14.44
2023-03-25T03:48:53.128Z,14.43
2023-03-25T03:51:25.417Z,14.54
2023-03-25T03:54:14.280Z,15.10
2023-03-25T03:56:46.626Z,14.59
2023-03-25T03:59:21.309Z,15.16
2023-03-25T04:01:54.164Z,15.22
2023-03-25T04:04:31.643Z,15.18
2023-03-25T04:07:20.176Z,15.02
2023-03-25T04:10:15.215Z,14.98
2023-03-25T04:12:46.376Z,14.92
2023-03-25T04:15:14.901Z,14.68
2023-03-25T04:17:43.128Z,15.18
2023-03-25T04:20:14.432Z,15.10
2023-03-25T04:22:46.130Z,15.16
2023-03-25T04:25:14.101Z,15.36
2023-03-25T04:27:49.049Z,14.64
2023-03-25T04:30:19.764Z,15.07
2023-03-25T04:32:47.756Z,15.28
2023-03-25T04:35:17.102Z,15.33
2023-03-25T04:37:49.115Z,15.11
2023-03-25T04:40:19.002Z,15.17
2023-03-25T04:42:47.004Z,15.33
2023-03-25T04:45:17.032Z,15.33
2023-03-25T04:47:47.313Z,15.61
2023-03-25T04:50:27.265Z,15.01
2023-03-25T04:52:57.580Z,15.41
2023-03-25T04:55:25.902Z,15.55
2023-03-25T04:57:54.625Z,15.29
2023-03-25T05:00:24.459Z,15.46
2023-03-25T05:02:54.778Z,15.26
2023-03-25T05:05:24.598Z,15.44
2023-03-25T05:07:53.738Z,14.93
2023-03-25T05:10:23.759Z,15.03
2023-03-25T05:12:58.478Z,14.99
2023-03-25T05:15:26.544Z,14.96
2023-03-25T05:17:54.188Z,14.93
2023-03-25T05:20:23.011Z,14.90
2023-03-25T05:22:53.320Z,15.26
2023-03-25T05:25:22.685Z,14.80
2023-03-25T05:27:50.079Z,15.12
2023-03-25T05:30:17.504Z,14.67
2023-03-25T05:32:45.876Z,15.02
2023-03-25T05:35:13.384Z,15.03
2023-03-25T05:37:40.794Z,14.65
2023-03-25T05:40:14.474Z,14.98
2023-03-25T05:42:47.209Z,15.04
2023-03-25T05:45:16.520Z,14.99
2023-03-25T05:47:44.478Z,15.09
2023-03-25T05:50:12.378Z,15.09
2023-03-25T05:52:43.781Z,14.99
2023-03-25T05:55:15.819Z,15.03
2023-03-25T05:57:43.857Z,15.08
2023-03-25T06:00:12.855Z,15.06
2023-03-25T06:02:43.217Z,15.33
2023-03-25T06:05:14.023Z,15.44
2023-03-25T06:07:43.186Z,15.41
2023-03-25T06:10:11.070Z,15.21
2023-03-25T06:12:39.263Z,15.11
2023-03-25T06:15:09.317Z,15.13
2023-03-25T06:17:39.726Z,15.12
2023-03-25T06:20:12.593Z,15.33
2023-03-25T06:22:43.036Z,15.39
2023-03-25T06:25:13.217Z,14.96
2023-03-25T06:27:42.024Z,15.23
2023-03-25T06:30:12.730Z,15.41
2023-03-25T06:32:40.512Z,15.24
2023-03-25T06:35:09.816Z,15.53
2023-03-25T06:37:38.186Z,15.17
2023-03-25T06:40:07.155Z,15.36
2023-03-25T06:42:34.626Z,15.26
2023-03-25T06:45:05.190Z,15.54
2023-03-25T06:47:34.560Z,15.37
2023-03-25T06:50:02.202Z,15.23
2023-03-25T06:52:29.684Z,15.36
2023-03-25T06:54:57.413Z,15.08
2023-03-25T06:57:24.848Z,14.91
2023-03-25T06:59:52.246Z,15.46
2023-03-25T07:02:19.865Z,15.31
2023-03-25T07:04:47.275Z,15.61
2023-03-25T07:07:14.713Z,15.64
2023-03-25T07:09:42.396Z,15.44
2023-03-25T07:12:09.849Z,15.21
2023-03-25T07:14:37.277Z,15.61
2023-03-25T07:17:04.950Z,15.35
2023-03-25T07:19:32.357Z,15.44
2023-03-25T07:21:59.729Z,15.87
2023-03-25T07:24:27.827Z,15.26
2023-03-25T07:26:55.262Z,15.89
2023-03-25T07:29:23.536Z,15.57
2023-03-25T07:31:51.228Z,15.76
2023-03-25T07:34:18.681Z,15.50
2023-03-25T07:36:46.125Z,15.40
2023-03-25T07:39:13.865Z,15.91
2023-03-25T07:41:43.013Z,15.92
2023-03-25T07:44:10.749Z,16.16
2023-03-25T07:46:38.660Z,16.19
2023-03-25T07:49:06.102Z,16.54
2023-03-25T07:51:35.089Z,16.92
2023-03-25T07:54:04.976Z,16.68
2023-03-25T07:56:33.614Z,17.90
2023-03-25T07:59:01.318Z,19.64
2023-03-25T08:01:29.080Z,20.88
2023-03-25T08:03:57.343Z,21.02
2023-03-25T08:06:24.870Z,20.67
2023-03-25T08:08:52.235Z,19.62
2023-03-25T08:11:19.951Z,19.05
2023-03-25T08:13:47.543Z,18.96
2023-03-25T08:16:15.390Z,18.32
2023-03-25T08:18:45.262Z,18.89
2023-03-25T08:21:13.334Z,18.63
2023-03-25T08:23:41.170Z,19.71
2023-03-25T08:26:10.333Z,20.24
2023-03-25T08:28:38.148Z,20.12
2023-03-25T08:31:08.612Z,20.53
2023-03-25T08:33:40.942Z,19.74
2023-03-25T08:36:13.910Z,20.13
2023-03-25T08:38:41.670Z,20.15
2023-03-25T08:41:09.099Z,19.67
2023-03-25T08:43:36.521Z,19.72
2023-03-25T08:46:04.316Z,19.40
2023-03-25T08:48:31.732Z,19.36
2023-03-25T08:50:59.344Z,19.76
2023-03-25T08:53:27.119Z,19.79
2023-03-25T08:55:56.598Z,19.46
2023-03-25T08:58:25.014Z,19.96
2023-03-25T09:00:55.904Z,19.94
2023-03-25T09:03:24.829Z,19.97
2023-03-25T09:05:52.583Z,20.41
2023-03-25T09:08:21.157Z,20.21
2023-03-25T09:10:48.641Z,19.38
2023-03-25T09:13:16.480Z,19.20
2023-03-25T09:15:45.637Z,19.48
2023-03-25T09:18:13.046Z,19.83
2023-03-25T09:20:41.322Z,19.75
2023-03-25T09:23:09.878Z,20.32
2023-03-25T09:25:37.799Z,20.53
2023-03-25T09:28:05.405Z,19.87
2023-03-25T09:30:33.158Z,19.92
2023-03-25T09:33:01.192Z,20.67
2023-03-25T09:35:28.794Z,19.72
2023-03-25T09:37:56.717Z,20.10
2023-03-25T09:40:24.775Z,20.79
2023-03-25T09:43:08.057Z,20.90
2023-03-25T09:45:39.283Z,20.96
2023-03-25T09:48:24.238Z,20.53
2023-03-25T09:50:51.918Z,20.40
2023-03-25T09:53:38.059Z,20.11
2023-03-25T09:56:14.445Z,20.82
2023-03-25T09:58:44.760Z,20.71
2023-03-25T10:01:46.023Z,20.32
2023-03-25T10:04:34.826Z,19.75
2023-03-25T10:07:23.732Z,20.16
2023-03-25T10:10:05.713Z,19.95
2023-03-25T10:12:46.257Z,20.02
2023-03-25T10:15:41.208Z,20.34
2023-03-25T10:18:18.259Z,19.99
2023-03-25T10:20:55.850Z,19.96
2023-03-25T10:23:41.841Z,19.87
2023-03-25T10:26:23.303Z,19.96
2023-03-25T10:29:06.216Z,19.83
2023-03-25T10:31:38.074Z,20.38
2023-03-25T10:34:09.164Z,20.51
2023-03-25T10:36:42.760Z,20.80
2023-03-25T10:39:15.058Z,20.81
2023-03-25T10:41:43.528Z,20.46
2023-03-25T10:44:11.507Z,20.29
2023-03-25T10:46:52.438Z,20.19
2023-03-25T10:49:27.724Z,20.13
2023-03-25T10:51:57.605Z,20.34
2023-03-25T10:54:29.665Z,20.11
2023-03-25T10:57:00.580Z,20.04
2023-03-25T10:59:39.384Z,19.70
2023-03-25T11:02:20.246Z,20.22
2023-03-25T11:04:51.950Z,20.34
2023-03-25T11:07:23.657Z,20.14
2023-03-25T11:09:51.863Z,19.42
2023-03-25T11:12:27.307Z,18.93
2023-03-25T11:15:02.330Z,19.14
2023-03-25T11:17:29.792Z,18.93
2023-03-25T11:20:00.808Z,18.81
2023-03-25T11:22:30.255Z,19.12
2023-03-25T11:25:07.034Z,19.34
2023-03-25T11:27:48.994Z,19.12
2023-03-25T11:30:21.811Z,18.33
2023-03-25T11:33:13.893Z,18.56
2023-03-25T11:35:49.189Z,18.35
2023-03-25T11:38:22.357Z,18.37
2023-03-25T11:40:54.321Z,18.38
2023-03-25T11:43:24.192Z,18.42
2023-03-25T11:45:52.234Z,18.54
2023-03-25T11:48:22.745Z,18.43
2023-03-25T11:50:56.222Z,17.91
2023-03-25T11:53:26.287Z,18.11
2023-03-25T11:56:12.017Z,18.01
2023-03-25T11:58:40.664Z,18.20
2023-03-25T12:01:22.714Z,17.95
2023-03-25T12:03:51.858Z,18.22
2023-03-25T12:06:23.753Z,17.81
2023-03-25T12:08:59.652Z,17.66
2023-03-25T12:11:36.321Z,17.92
2023-03-25T12:14:29.046Z,18.17
2023-03-25T12:17:18.056Z,17.52
2023-03-25T12:19:58.562Z,17.72
2023-03-25T12:22:28.979Z,18.02
2023-03-25T12:25:30.455Z,17.37
2023-03-25T12:28:48.623Z,17.14
2023-03-25T12:31:51.758Z,17.19
2023-03-25T12:34:22.024Z,17.57
2023-03-25T12:37:17.634Z,17.57
2023-03-25T12:40:06.883Z,17.06
2023-03-25T12:43:08.412Z,17.68
2023-03-25T12:45:50.966Z,17.64
2023-03-25T12:48:21.551Z,17.70
2023-03-25T12:51:04.230Z,17.45
2023-03-25T12:53:32.392Z,17.78
2023-03-25T12:56:11.345Z,17.34
2023-03-25T12:58:48.591Z,17.64
2023-03-25T13:01:31.209Z,17.69
2023-03-25T13:04:21.841Z,17.38
2023-03-25T13:07:07.971Z,17.37
2023-03-25T13:09:39.408Z,17.03
2023-03-25T13:12:15.627Z,17.17
2023-03-25T13:15:01.774Z,17.05
2023-03-25T13:18:00.216Z,17.56
2023-03-25T13:20:30.944Z,17.96
2023-03-25T13:23:02.199Z,18.14
2023-03-25T13:25:36.869Z,18.02
2023-03-25T13:28:06.573Z,17.19
2023-03-25T13:30:39.412Z,17.69
2023-03-25T13:33:13.780Z,17.25
2023-03-25T13:35:55.117Z,17.03
2023-03-25T13:38:34.649Z,16.82
2023-03-25T13:41:20.102Z,17.07
2023-03-25T13:43:54.449Z,17.32
2023-03-25T13:46:27.846Z,17.03
2023-03-25T13:48:59.466Z,17.48
2023-03-25T13:51:27.473Z,17.12
2023-03-25T13:54:25.677Z,17.42
2023-03-25T13:57:21.491Z,17.48
2023-03-25T13:59:52.160Z,17.24
2023-03-25T14:02:34.848Z,17.31
2023-03-25T14:05:44.110Z,17.29
2023-03-25T14:08:27.834Z,17.15
2023-03-25T14:11:14.087Z,17.30
2023-03-25T14:13:47.914Z,16.85
2023-03-25T14:16:17.396Z,17.01
2023-03-25T14:18:49.346Z,17.06
2023-03-25T14:21:38.464Z,17.13
2023-03-25T14:24:27.060Z,16.73
2023-03-25T14:27:01.004Z,17.02
2023-03-25T14:29:31.817Z,16.64
2023-03-25T14:32:02.154Z,16.94
2023-03-25T14:34:29.679Z,17.08
2023-03-25T14:36:57.558Z,17.19
2023-03-25T14:39:28.331Z,17.00
2023-03-25T14:42:04.078Z,16.67
2023-03-25T14:44:34.033Z,16.93
2023-03-25T14:47:02.451Z,16.89
2023-03-25T14:49:54.650Z,17.49
2023-03-25T14:52:29.976Z,16.59
2023-03-25T14:54:58.095Z,17.12
2023-03-25T14:57:28.676Z,16.59
2023-03-25T15:00:01.494Z,16.70
2023-03-25T15:02:32.345Z,16.77
2023-03-25T15:05:14.036Z,16.91
2023-03-25T15:07:50.499Z,16.87
2023-03-25T15:10:26.129Z,16.07
2023-03-25T15:13:05.901Z,16.46
2023-03-25T15:15:58.039Z,16.50
2023-03-25T15:18:31.792Z,16.41
2023-03-25T15:21:13.354Z,16.19
2023-03-25T15:23:47.613Z,16.52
2023-03-25T15:26:24.101Z,16.38
2023-03-25T15:29:04.077Z,16.66
2023-03-25T15:32:13.518Z,16.41
2023-03-25T15:34:46.998Z,17.22
2023-03-25T15:37:45.095Z,17.02
2023-03-25T15:40:14.076Z,16.94
2023-03-25T15:43:10.272Z,16.55
2023-03-25T15:46:15.435Z,16.75
2023-03-25T15:48:51.871Z,17.13
2023-03-25T15:51:52.579Z,17.04
2023-03-25T15:54:53.542Z,16.40
2023-03-25T15:57:24.346Z,17.07
2023-03-25T15:59:59.737Z,17.16
2023-03-25T16:03:02.478Z,16.80
2023-03-25T16:05:31.469Z,16.88
2023-03-25T16:08:01.245Z,16.49
2023-03-25T16:10:36.374Z,17.06
2023-03-25T16:13:12.113Z,17.17
2023-03-25T16:15:39.384Z,17.17
2023-03-25T16:18:08.262Z,16.73
2023-03-25T16:20:36.629Z,16.71
2023-03-25T16:23:06.459Z,17.17
2023-03-25T16:25:38.088Z,17.38
2023-03-25T16:28:08.658Z,17.22
2023-03-25T16:30:39.016Z,17.04
2023-03-25T16:33:10.802Z,16.99
2023-03-25T16:35:43.677Z,16.75
2023-03-25T16:38:20.304Z,16.52
2023-03-25T16:40:49.213Z,17.06
2023-03-25T16:43:19.566Z,17.40
2023-03-25T16:45:48.641Z,17.37
2023-03-25T16:48:18.969Z,17.19
2023-03-25T16:50:46.499Z,17.16
2023-03-25T16:53:15.433Z,16.99
2023-03-25T16:55:51.545Z,17.15
2023-03-25T16:58:27.089Z,17.03
2023-03-25T17:00:56.225Z,17.20
2023-03-25T17:03:43.514Z,17.11
2023-03-25T17:06:28.268Z,17.07
2023-03-25T17:08:57.380Z,16.99
2023-03-25T17:11:32.316Z,17.11
2023-03-25T17:14:20.962Z,16.97
2023-03-25T17:16:50.834Z,17.14
2023-03-25T17:19:19.622Z,17.29
2023-03-25T17:22:04.723Z,17.26
2023-03-25T17:24:41.891Z,17.32
2023-03-25T17:27:20.313Z,17.31
2023-03-25T17:29:57.341Z,17.44
2023-03-25T17:32:25.142Z,17.40
2023-03-25T17:35:06.524Z,17.42
2023-03-25T17:37:34.258Z,17.32
2023-03-25T17:40:10.977Z,17.37
2023-03-25T17:42:38.831Z,17.25
2023-03-25T17:45:07.285Z,17.25
2023-03-25T17:47:34.831Z,17.27
2023-03-25T17:50:13.620Z,17.29
2023-03-25T17:52:41.388Z,17.22
2023-03-25T17:55:09.732Z,17.16
2023-03-25T17:57:37.770Z,16.96
2023-03-25T18:00:12.017Z,16.68
2023-03-25T18:02:40.904Z,16.64
2023-03-25T18:05:08.929Z,16.70
2023-03-25T18:07:36.442Z,16.54
2023-03-25T18:10:14.010Z,16.41
2023-03-25T18:12:41.560Z,16.22
2023-03-25T18:15:09.641Z,16.29
2023-03-25T18:17:37.110Z,16.15
2023-03-25T18:20:17.107Z,15.97
2023-03-25T18:22:45.043Z,15.96
2023-03-25T18:25:13.933Z,16.25
2023-03-25T18:27:44.165Z,16.30
2023-03-25T18:30:23.184Z,16.38
2023-03-25T18:32:50.695Z,16.23
2023-03-25T18:35:18.713Z,16.27
2023-03-25T18:37:48.722Z,16.15
2023-03-25T18:40:16.451Z,16.09
2023-03-25T18:42:44.761Z,16.11
2023-03-25T18:45:12.498Z,16.00
2023-03-25T18:47:39.961Z,15.56
2023-03-25T18:50:16.220Z,15.51
2023-03-25T18:52:44.173Z,15.29
2023-03-25T18:55:12.916Z,15.07
2023-03-25T18:57:42.318Z,15.17
2023-03-25T19:00:16.673Z,14.86
2023-03-25T19:02:44.914Z,14.64
2023-03-25T19:05:13.192Z,15.00
2023-03-25T19:07:40.926Z,15.19
2023-03-25T19:10:15.296Z,15.31
2023-03-25T19:12:44.441Z,15.41
2023-03-25T19:15:15.301Z,15.44
2023-03-25T19:17:44.034Z,15.24
2023-03-25T19:20:17.187Z,15.28
2023-03-25T19:22:45.341Z,15.37
2023-03-25T19:25:13.383Z,15.28
2023-03-25T19:27:42.791Z,15.24
2023-03-25T19:30:13.132Z,15.25
2023-03-25T19:32:42.904Z,15.19
2023-03-25T19:35:11.598Z,15.06
2023-03-25T19:37:47.550Z,15.02
2023-03-25T19:40:20.055Z,15.02
2023-03-25T19:42:48.430Z,14.60
2023-03-25T19:45:17.684Z,14.37
2023-03-25T19:47:45.841Z,14.20
2023-03-25T19:50:16.766Z,14.39
2023-03-25T19:52:45.764Z,14.12
2023-03-25T19:55:14.142Z,13.38
2023-03-25T19:57:42.882Z,13.91
2023-03-25T20:00:16.312Z,13.48
2023-03-25T20:02:47.624Z,13.35
2023-03-25T20:05:15.913Z,13.37
2023-03-25T20:07:45.152Z,13.74
2023-03-25T20:10:20.158Z,13.10
2023-03-25T20:12:50.778Z,13.45
2023-03-25T20:15:20.175Z,14.03
2023-03-25T20:17:52.101Z,13.98
2023-03-25T20:20:20.484Z,14.11
2023-03-25T20:22:48.967Z,14.15
2023-03-25T20:25:17.035Z,14.02
2023-03-25T20:27:45.218Z,14.31
2023-03-25T20:30:16.973Z,14.07
2023-03-25T20:32:47.593Z,13.98
2023-03-25T20:35:17.856Z,13.72
2023-03-25T20:37:46.934Z,13.65
2023-03-25T20:40:16.733Z,13.72
2023-03-25T20:42:46.442Z,13.68
2023-03-25T20:45:16.427Z,13.51
2023-03-25T20:47:44.698Z,13.21
2023-03-25T20:50:14.612Z,13.22
2023-03-25T20:52:42.523Z,12.89
2023-03-25T20:55:11.356Z,12.84
2023-03-25T20:57:39.736Z,12.90
2023-03-25T21:00:08.356Z,12.98
2023-03-25T21:02:36.161Z,12.84
2023-03-25T21:05:05.826Z,12.64
2023-03-25T21:07:35.324Z,12.87
2023-03-25T21:10:03.622Z,12.80
2023-03-25T21:12:42.607Z,12.67
2023-03-25T21:15:13.353Z,12.84
2023-03-25T21:17:41.409Z,12.59
2023-03-25T21:20:09.538Z,12.69
2023-03-25T21:22:43.303Z,12.58
2023-03-25T21:25:13.162Z,12.56
2023-03-25T21:27:42.374Z,12.74
2023-03-25T21:30:10.746Z,12.85
2023-03-25T21:32:38.935Z,12.90
2023-03-25T21:35:07.996Z,12.83
2023-03-25T21:37:38.575Z,12.79
2023-03-25T21:40:08.235Z,12.90
2023-03-25T21:42:38.370Z,12.83
2023-03-25T21:45:08.213Z,12.90
2023-03-25T21:47:36.529Z,12.65
2023-03-25T21:50:09.532Z,12.47
2023-03-25T21:52:43.487Z,12.72
2023-03-25T21:55:11.309Z,12.53
2023-03-25T21:57:39.688Z,12.59
2023-03-25T22:00:08.644Z,12.64
2023-03-25T22:02:39.407Z,12.49
2023-03-25T22:05:07.691Z,12.48
2023-03-25T22:07:35.081Z,12.66
2023-03-25T22:10:04.518Z,12.56
2023-03-25T22:12:32.784Z,12.67
2023-03-25T22:15:00.357Z,12.19
2023-03-25T22:17:28.056Z,12.46
2023-03-25T22:19:55.785Z,12.08
2023-03-25T22:22:23.193Z,12.30
2023-03-25T22:24:50.726Z,12.41
2023-03-25T22:27:18.565Z,12.01
2023-03-25T22:29:46.153Z,12.28
2023-03-25T22:32:14.456Z,12.32
2023-03-25T22:34:42.210Z,12.25
2023-03-25T22:37:09.625Z,12.28
2023-03-25T22:39:37.833Z,12.12
2023-03-25T22:42:05.578Z,11.80
2023-03-25T22:44:33.022Z,12.14
2023-03-25T22:47:00.578Z,11.93
2023-03-25T22:49:28.351Z,11.98
2023-03-25T22:51:56.015Z,11.88
2023-03-25T22:54:23.613Z,12.42
2023-03-25T22:56:51.367Z,12.52
2023-03-25T22:59:18.879Z,12.67
2023-03-25T23:01:46.643Z,12.85
2023-03-25T23:04:14.442Z,12.78
2023-03-25T23:06:42.106Z,12.31
2023-03-25T23:09:10.173Z,12.62
2023-03-25T23:11:38.468Z,12.19
2023-03-25T23:14:08.881Z,12.10
2023-03-25T23:16:36.908Z,12.25
2023-03-25T23:19:06.188Z,12.27
2023-03-25T23:21:34.363Z,11.91
2023-03-25T23:24:03.833Z,11.81
2023-03-25T23:26:41.168Z,11.79
2023-03-25T23:29:12.469Z,12.09
2023-03-25T23:31:42.369Z,12.03
2023-03-25T23:34:15.524Z,12.10
2023-03-25T23:36:43.624Z,12.02
2023-03-25T23:39:15.358Z,11.85
2023-03-25T23:41:43.099Z,11.95
2023-03-25T23:44:10.787Z,12.12
2023-03-25T23:46:38.227Z,12.10
2023-03-25T23:49:06.039Z,12.05
2023-03-25T23:51:36.535Z,11.97
2023-03-25T23:54:05.921Z,11.87
2023-03-25T23:56:33.715Z,11.88
2023-03-25T23:59:01.724Z,11.84
